Buoy 13516

sailwx.info

Track history (hours):
 
Tides and Currents Weather Stations Pressure Air Temp Water Temp Dewpoint Dewpoint Depression Visibility Wind Speed Wind Dir Waves Ship Positions

Ao Chao Yang 13516

Last reported at 2015-Mar-05 01:30 UTC. Time now 2015-Mar-05 02:36 UTC.
Position N 26°29' W 041°43'.

Length 20 m.

Type: Fishing. MMSI: 412469022.

Water temperature 21.5 ° C

Date/timePositionNaut miles runAvg speedWind from/ knotsBaromVisibWave heightAir tempDewpointWater temp
2015-Mar-05 01:30N 26°29' W 041°43'0 8.7 21.5
2015-Mar-05 01:27N 26°29' W 041°43'0 0.0 21.5
2015-Mar-05 00:42N 26°29' W 041°43'1 1.1 21.5
2015-Mar-04 23:52N 26°28' W 041°44'1 1.1 21.5
2015-Mar-04 23:03N 26°29' W 041°44'0 0.0 21.5
2015-Mar-04 22:54N 26°29' W 041°44'0 0.0 21.5
2015-Mar-04 22:09N 26°29' W 041°44'0 0.0 21.6
2015-Mar-04 20:54N 26°29' W 041°44'0 0.8 21.7
2015-Mar-04 20:24N 26°29' W 041°43'1 7.2 21.7
2015-Mar-04 20:18N 26°28' W 041°43'1 3.0 21.7
2015-Mar-04 19:48N 26°29' W 041°45'0 0.0 21.7
2015-Mar-04 19:39N 26°29' W 041°45'0 0.0
2015-Mar-04 19:13N 26°29' W 041°45'1 2.1 21.7
2015-Mar-04 18:43N 26°30' W 041°44'0 0.2 21.7
2015-Mar-04 17:18N 26°29' W 041°44'1 0.5 21.7
2015-Mar-04 15:37N 26°30' W 041°44'1 1.0 21.7
2015-Mar-04 14:15N 26°30' W 041°46'1 1.6 21.5
2015-Mar-04 13:25N 26°30' W 041°44'1 0.6 21.4
2015-Mar-04 12:30N 26°31' W 041°45'0 0.0 21.4
2015-Mar-04 12:24N 26°31' W 041°45'0 0.0
2015-Mar-04 11:48N 26°31' W 041°45'1 4.3 21.4
2015-Mar-04 11:37N 26°31' W 041°45'1 0.3
2015-Mar-04 09:30N 26°31' W 041°44'0 0.0 21.4
2015-Mar-04 09:09N 26°31' W 041°44'0 5.2 21.4
2015-Mar-04 09:04N 26°31' W 041°45'0 1.6 21.4
2015-Mar-04 08:58N 26°31' W 041°44'0 7.3 21.4
2015-Mar-04 08:54N 26°31' W 041°45'0 0.0 21.4
2015-Mar-04 07:54N 26°31' W 041°45'0 0.3 21.4
2015-Mar-04 07:19N 26°31' W 041°45'0 0.1 21.4
2015-Mar-04 05:54N 26°31' W 041°45'013.5 21.4
2015-Mar-04 05:52N 26°31' W 041°45'0 0.0 21.4
2015-Mar-04 05:48N 26°31' W 041°45'0 0.0 21.4
2015-Mar-04 04:13N 26°31' W 041°45'1 9.4 21.4
2015-Mar-04 04:07N 26°32' W 041°44'0 0.0 21.4
2015-Mar-04 01:49N 26°32' W 041°44'0 0.0 21.4
2015-Mar-04 01:46N 26°32' W 041°44'0 0.0 21.4
2015-Mar-04 01:04N 26°32' W 041°44'0 0.0 21.5
2015-Mar-04 00:09N 26°32' W 041°44'0 0.4 21.5
2015-Mar-03 23:24N 26°32' W 041°44'0 0.0 21.5
2015-Mar-03 23:13N 26°32' W 041°44'0 0.0 21.5
2015-Mar-03 22:31N 26°32' W 041°44'0 0.0 21.5
2015-Mar-03 22:22N 26°32' W 041°44'1 2.3
2015-Mar-03 21:54N 26°31' W 041°45'1 0.9 21.5
2015-Mar-03 21:18N 26°32' W 041°45'0 0.3 21.5
2015-Mar-03 20:33N 26°32' W 041°45'1 3.8 21.7
2015-Mar-03 20:21N 26°31' W 041°45'1 6.6 21.7
2015-Mar-03 20:09N 26°31' W 041°46'0 0.0 21.7
2015-Mar-03 19:39N 26°31' W 041°46'0 0.0 21.7
2015-Mar-03 18:54N 26°31' W 041°46'2 1.8 21.7
2015-Mar-03 17:54N 26°32' W 041°44'0 0.0 21.7
2015-Mar-03 17:28N 26°32' W 041°44'0 0.8 21.7
2015-Mar-03 17:09N 26°32' W 041°44'0 0.0 21.7
2015-Mar-03 15:49N 26°32' W 041°44'1 4.9 21.5
2015-Mar-03 15:37N 26°33' W 041°45'0 0.1 21.5
2015-Mar-03 14:33N 26°33' W 041°45'0 0.0 21.5
2015-Mar-03 13:46N 26°33' W 041°45'0 0.2 21.4
2015-Mar-03 12:54N 26°33' W 041°45'1 0.8 21.4
2015-Mar-03 12:04N 26°34' W 041°45'1 8.5 21.4
2015-Mar-03 12:00N 26°34' W 041°45'0 0.0 21.4
2015-Mar-03 11:12N 26°34' W 041°45'1 6.6 21.4
2015-Mar-03 11:07N 26°34' W 041°45'0 0.0 21.4
2015-Mar-03 10:03N 26°34' W 041°45'1 1.4 21.4
2015-Mar-03 09:40N 26°34' W 041°45'0 0.4 21.4
2015-Mar-03 09:09N 26°34' W 041°45'0 0.0 21.4
2015-Mar-03 08:01N 26°34' W 041°45'0 0.4 21.4
2015-Mar-03 07:31N 26°34' W 041°45'0 1.6 21.4
2015-Mar-03 07:25N 26°34' W 041°45'0 0.2 21.4
2015-Mar-03 06:42N 26°34' W 041°45'0 0.0
2015-Mar-03 06:07N 26°34' W 041°45'1 4.6 21.4
2015-Mar-03 06:00N 26°34' W 041°45'0 0.0 21.4
2015-Mar-03 04:28N 26°34' W 041°45'0 0.0 21.4
2015-Mar-03 04:25N 26°34' W 041°45'1 6.8 21.4
2015-Mar-03 04:18N 26°35' W 041°45'0 0.0 21.4
2015-Mar-03 01:24N 26°35' W 041°45'0 0.1 21.4
2015-Mar-03 00:31N 26°35' W 041°45'1 0.6 21.4
2015-Mar-02 22:52N 26°35' W 041°46'1 5.2 21.4
2015-Mar-02 22:46N 26°36' W 041°45'0 0.0 21.4
2015-Mar-02 21:39N 26°36' W 041°45'0 0.0 21.5
2015-Mar-02 20:52N 26°36' W 041°45'0 3.4 21.5
2015-Mar-02 20:45N 26°35' W 041°46'1 0.8 21.5
2015-Mar-02 20:04N 26°35' W 041°46'0 0.0 21.5
2015-Mar-02 20:00N 26°35' W 041°46'0 0.0 21.5
2015-Mar-02 19:06N 26°35' W 041°46'0 0.2 21.6
2015-Mar-02 18:22N 26°35' W 041°46'0 0.1 21.5
2015-Mar-02 17:40N 26°35' W 041°46'1 8.1 21.5
2015-Mar-02 17:36N 26°35' W 041°46'0 0.0 21.5
2015-Mar-02 17:21N 26°35' W 041°46'0 0.2 21.5
2015-Mar-02 16:00N 26°35' W 041°45'0 2.6 21.5
2015-Mar-02 15:54N 26°35' W 041°45'111.0 21.4
2015-Mar-02 15:49N 26°36' W 041°45'0 0.0 21.4
2015-Mar-02 14:09N 26°36' W 041°45'1 6.6 21.4
2015-Mar-02 14:01N 26°36' W 041°45'0 0.6 21.4
2015-Mar-02 13:18N 26°36' W 041°45'0 1.6 21.4
2015-Mar-02 13:15N 26°36' W 041°45'0 0.6 21.4
2015-Mar-02 12:30N 26°36' W 041°45'0 0.5 21.4
2015-Mar-02 11:33N 26°36' W 041°45'118.0 21.4
2015-Mar-02 11:30N 26°37' W 041°45'0 0.2 21.4
2015-Mar-02 10:25N 26°37' W 041°45'0 0.7 21.4
2015-Mar-02 10:07N 26°37' W 041°45'0 0.3 21.4
2015-Mar-02 09:22N 26°37' W 041°45'0 5.0 21.4
2015-Mar-02 09:16N 26°37' W 041°45'0 1.0 21.4
2015-Mar-02 08:49N 26°37' W 041°45'0 2.1 21.4
2015-Mar-02 08:42N 26°37' W 041°45'0 0.0 21.4
2015-Mar-02 07:37N 26°37' W 041°45'0 0.1 21.4
2015-Mar-02 07:07N 26°37' W 041°45'0 1.5 21.4
2015-Mar-02 06:49N 26°37' W 041°45'0 0.0 21.4
2015-Mar-02 06:19N 26°37' W 041°45'0 2.9 21.4
2015-Mar-02 06:13N 26°37' W 041°45'1 0.7 21.4
2015-Mar-02 04:36N 26°37' W 041°46'1 6.3 21.4
2015-Mar-02 04:31N 26°38' W 041°46'0 0.0 21.4
2015-Mar-02 00:52N 26°38' W 041°46'2 2.2 21.4
2015-Mar-02 00:06N 26°39' W 041°47'0 0.0 21.4
2015-Mar-02 00:01N 26°39' W 041°47'0 0.0 21.4
2015-Mar-01 23:58N 26°39' W 041°47'0 0.0 21.4
2015-Mar-01 23:09N 26°39' W 041°47'143.5 21.4
2015-Mar-01 23:07N 26°38' W 041°46'1 8.6 21.4
2015-Mar-01 22:58N 26°39' W 041°45'2 0.9 21.4
2015-Mar-01 20:52N 26°37' W 041°46'0 0.8 21.5
2015-Mar-01 20:28N 26°38' W 041°46'1 0.3 21.5
2015-Mar-01 17:51N 26°38' W 041°47'1 3.6 21.5
2015-Mar-01 17:34N 26°38' W 041°48'1 0.8 21.5
2015-Mar-01 16:09N 26°38' W 041°46'2 0.8 21.5
2015-Mar-01 13:37N 26°38' W 041°44'0 0.0 21.4
2015-Mar-01 12:49N 26°38' W 041°44'0 0.0 21.4
2015-Mar-01 12:46N 26°38' W 041°44'2 2.0 21.4
2015-Mar-01 11:54N 26°39' W 041°46'0 0.1 21.4
2015-Mar-01 09:36N 26°39' W 041°46'126.4 21.4
2015-Mar-01 09:34N 26°39' W 041°45'0 3.2 21.4
2015-Mar-01 09:28N 26°39' W 041°46'0 0.0 21.4
2015-Mar-01 09:07N 26°39' W 041°46'0 0.0 21.4
2015-Mar-01 09:04N 26°39' W 041°46'1 1.2 21.4
2015-Mar-01 07:54N 26°39' W 041°47'0 2.4 21.4
2015-Mar-01 07:49N 26°39' W 041°47'0 0.0 21.4
2015-Mar-01 07:46N 26°39' W 041°47'0 0.0 21.4
2015-Mar-01 07:31N 26°39' W 041°47'1 6.5 21.4
2015-Mar-01 07:24N 26°39' W 041°46'0 0.5 21.4
2015-Mar-01 06:28N 26°39' W 041°47'0 3.2 21.4
2015-Mar-01 06:22N 26°40' W 041°47'0 0.0 21.4
2015-Mar-01 06:07N 26°40' W 041°47'0 0.0
2015-Mar-01 04:48N 26°40' W 041°47'1 8.1 21.4
2015-Mar-01 04:42N 26°40' W 041°46'0 0.1 21.4
2015-Mar-01 01:07N 26°40' W 041°47'1 1.4 21.5
2015-Mar-01 00:25N 26°40' W 041°48'0 0.0 21.5
2015-Feb-28 23:34N 26°40' W 041°48'1 1.0 21.5
2015-Feb-28 22:46N 26°40' W 041°47'0 0.0 21.5
2015-Feb-28 21:04N 26°40' W 041°47'0 0.4 21.5
2015-Feb-28 20:52N 26°40' W 041°47'0 0.5 21.5
2015-Feb-28 20:15N 26°39' W 041°47'0 2.0 21.5
2015-Feb-28 20:04N 26°39' W 041°47'0 0.1 21.5
2015-Feb-28 19:28N 26°39' W 041°47'2 6.4 21.6
2015-Feb-28 19:13N 26°40' W 041°49'215.6 21.6
2015-Feb-28 19:06N 26°39' W 041°47'0 0.2 21.6
2015-Feb-28 18:01N 26°39' W 041°47'0 0.7 21.6
2015-Feb-28 17:46N 26°39' W 041°47'0 0.1 21.6
2015-Feb-28 16:22N 26°39' W 041°47'1 0.5 21.5
2015-Feb-28 13:58N 26°39' W 041°46'0 0.0 21.5
2015-Feb-28 13:09N 26°39' W 041°46'0 0.2 21.5
2015-Feb-28 12:15N 26°39' W 041°46'111.9 21.5
2015-Feb-28 12:12N 26°39' W 041°45'0 0.0 21.5
2015-Feb-28 12:09N 26°39' W 041°45'0 0.0 21.5
2015-Feb-28 11:31N 26°39' W 041°45'0 1.4 21.5
2015-Feb-28 11:24N 26°40' W 041°45'0 0.2 21.5
2015-Feb-28 09:45N 26°40' W 041°45'0 0.0 21.5
2015-Feb-28 09:37N 26°40' W 041°45'0 0.0 21.5
2015-Feb-28 08:04N 26°40' W 041°45'0 0.0 21.5
2015-Feb-28 07:54N 26°40' W 041°45'0 0.3 21.5
2015-Feb-28 06:42N 26°40' W 041°45'0 2.4 21.5
2015-Feb-28 06:33N 26°40' W 041°45'0 1.2 21.5
2015-Feb-28 06:19N 26°40' W 041°45'0 0.0 21.5
2015-Feb-28 04:58N 26°40' W 041°45'1 0.4 21.5
2015-Feb-28 01:30N 26°41' W 041°44'1 1.1 21.5
2015-Feb-28 00:46N 26°41' W 041°44'0 0.0 21.5
2015-Feb-27 23:55N 26°41' W 041°44'0 0.0 21.5
2015-Feb-27 23:52N 26°41' W 041°44'0 0.6 21.5
2015-Feb-27 23:04N 26°41' W 041°43'0 0.0 21.5
2015-Feb-27 22:58N 26°41' W 041°43'0 0.1
2015-Feb-27 20:34N 26°42' W 041°44'0 0.2 21.6
2015-Feb-27 18:13N 26°41' W 041°44'0 3.0 21.7
2015-Feb-27 18:09N 26°41' W 041°44'0 2.7
2015-Feb-27 17:58N 26°41' W 041°43'0 0.0 21.7
2015-Feb-27 17:54N 26°41' W 041°43'0 0.0 21.7
2015-Feb-27 16:34N 26°41' W 041°43'0 0.0 21.7
2015-Feb-27 14:51N 26°41' W 041°43'0 0.8 21.6
2015-Feb-27 14:18N 26°42' W 041°43'0 0.0 21.5
2015-Feb-27 13:28N 26°42' W 041°43'1 1.6 21.5
2015-Feb-27 12:36N 26°42' W 041°42'0 0.0 21.5
2015-Feb-27 12:28N 26°42' W 041°42'1 1.3 21.5
2015-Feb-27 11:48N 26°43' W 041°42'1 1.3 21.5
2015-Feb-27 10:51N 26°42' W 041°42'0 0.4
2015-Feb-27 10:01N 26°42' W 041°42'1 0.5 21.5
2015-Feb-27 08:27N 26°42' W 041°42'1 3.1 21.5
2015-Feb-27 08:15N 26°42' W 041°41'1 0.8 21.5
2015-Feb-27 06:45N 26°43' W 041°42'0 0.0 21.5
2015-Feb-27 06:39N 26°43' W 041°42'0 0.0 21.5
2015-Feb-27 06:36N 26°43' W 041°42'110.1 21.5
2015-Feb-27 06:31N 26°42' W 041°41'0 0.0 21.5
2015-Feb-27 05:06N 26°42' W 041°41'0 0.0 21.5
2015-Feb-27 01:51N 26°43' W 041°41'0 0.0 21.5
2015-Feb-27 01:06N 26°43' W 041°41'122.5 21.5
2015-Feb-27 01:03N 26°43' W 041°40'1 0.2 21.5
2015-Feb-26 20:03N 26°43' W 041°41'1 0.4 21.7
2015-Feb-26 18:21N 26°43' W 041°42'1 3.9 21.7
2015-Feb-26 18:09N 26°43' W 041°43'1 1.0 21.7
2015-Feb-26 16:45N 26°43' W 041°41'1 0.8 21.7
2015-Feb-26 15:03N 26°43' W 041°42'1 1.6 21.6
2015-Feb-26 14:34N 26°43' W 041°42'0 0.0 21.6
2015-Feb-26 13:51N 26°43' W 041°42'0 0.5 21.5
2015-Feb-26 12:52N 26°43' W 041°42'0 0.0 21.5
2015-Feb-26 12:07N 26°43' W 041°42'0 4.0
2015-Feb-26 12:04N 26°43' W 041°42'0 0.0 21.5
2015-Feb-26 11:18N 26°43' W 041°42'0 1.9 21.5
2015-Feb-26 11:12N 26°43' W 041°42'0 0.0 21.5
2015-Feb-26 08:54N 26°43' W 041°42'0 0.5 21.5
2015-Feb-26 08:25N 26°43' W 041°42'0 0.0 21.5
2015-Feb-26 07:18N 26°43' W 041°42'0 0.4 21.5
2015-Feb-26 07:03N 26°43' W 041°42'0 1.7 21.5
2015-Feb-26 06:51N 26°43' W 041°42'0 7.4 21.5
2015-Feb-26 06:48N 26°43' W 041°42'0 0.0 21.5
2015-Feb-26 05:21N 26°43' W 041°42'0 0.0 21.5
2015-Feb-26 05:13N 26°43' W 041°42'1 0.7 21.5
2015-Feb-26 03:40N 26°44' W 041°42'0 0.0 21.5
2015-Feb-26 01:27N 26°44' W 041°42'0 0.4 21.5
2015-Feb-26 00:37N 26°44' W 041°42'0 0.0 21.5
2015-Feb-26 00:34N 26°44' W 041°42'0 0.4 21.5
2015-Feb-25 23:46N 26°44' W 041°42'0 0.0 21.6
2015-Feb-25 23:42N 26°44' W 041°42'0 0.1 21.6
2015-Feb-25 22:54N 26°44' W 041°42'116.8 21.6
2015-Feb-25 22:51N 26°45' W 041°43'1 0.9 21.6
2015-Feb-25 21:48N 26°45' W 041°42'1 0.5 21.7
2015-Feb-25 20:27N 26°45' W 041°43'1 2.8 21.7
2015-Feb-25 20:09N 26°45' W 041°44'1 6.9 21.7
2015-Feb-25 20:03N 26°44' W 041°44'0 0.2 21.7
2015-Feb-25 18:46N 26°44' W 041°44'0 0.8 21.7
2015-Feb-25 18:33N 26°44' W 041°44'0 2.0 21.7
2015-Feb-25 18:22N 26°44' W 041°45'1 0.5 21.7
2015-Feb-25 16:54N 26°44' W 041°44'1 0.6 21.7
2015-Feb-25 15:15N 26°44' W 041°45'0 3.2 21.6
2015-Feb-25 15:09N 26°44' W 041°44'0 0.4 21.6
2015-Feb-25 14:12N 26°44' W 041°45'1 4.3 21.6
2015-Feb-25 14:03N 26°44' W 041°44'0 0.1 21.6
2015-Feb-25 12:27N 26°44' W 041°44'0 4.9 21.5
2015-Feb-25 12:24N 26°44' W 041°44'0 0.0 21.5
2015-Feb-25 11:37N 26°44' W 041°44'0 6.7 21.5
2015-Feb-25 11:33N 26°44' W 041°44'0 0.0 21.5
2015-Feb-25 09:09N 26°44' W 041°44'0 0.1 21.5
2015-Feb-25 07:48N 26°44' W 041°44'0 1.1 21.5
2015-Feb-25 07:28N 26°45' W 041°43'0 0.0 21.5
2015-Feb-25 07:09N 26°45' W 041°43'0 0.0
2015-Feb-25 07:01N 26°45' W 041°43'0 2.5 21.5
2015-Feb-25 06:58N 26°45' W 041°44'0 0.2 21.5
2015-Feb-25 05:31N 26°45' W 041°44'1 0.7 21.5
2015-Feb-25 03:51N 26°46' W 041°44'221.9 21.5
2015-Feb-25 03:46N 26°46' W 041°42'0 0.0 21.5
2015-Feb-25 00:54N 26°46' W 041°42'1 1.3 21.5
2015-Feb-25 00:09N 26°46' W 041°43'0 0.0 21.5
2015-Feb-25 00:06N 26°46' W 041°43'0 0.0 21.5
2015-Feb-24 23:16N 26°46' W 041°43'1 8.6 21.6
2015-Feb-24 23:09N 26°46' W 041°44'0 0.0 21.6
2015-Feb-24 23:07N 26°46' W 041°44'0 0.0 21.6
2015-Feb-24 22:22N 26°46' W 041°44'0 0.3 21.6
2015-Feb-24 20:51N 26°46' W 041°44'0 0.0 21.7
2015-Feb-24 20:15N 26°46' W 041°44'1 7.8 21.7
2015-Feb-24 20:09N 26°46' W 041°45'1 1.1 21.7
2015-Feb-24 19:09N 26°46' W 041°44'0 0.2 21.7
2015-Feb-24 17:07N 26°46' W 041°44'2 1.2 21.7
2015-Feb-24 15:22N 26°45' W 041°45'221.5 21.7
2015-Feb-24 15:16N 26°47' W 041°44'1 0.4 21.7
2015-Feb-24 13:40N 26°46' W 041°44'0 0.0 21.6
2015-Feb-24 12:52N 26°46' W 041°44'0 1.2 21.6
2015-Feb-24 12:49N 26°46' W 041°44'0 4.3 21.6
2015-Feb-24 12:46N 26°46' W 041°44'0 0.2 21.6
2015-Feb-24 11:54N 26°46' W 041°44'010.9 21.5
2015-Feb-24 11:52N 26°46' W 041°44'0 0.0 21.5
2015-Feb-24 11:07N 26°46' W 041°44'0 0.0 21.5
2015-Feb-24 10:00N 26°46' W 041°44'0 0.6 21.5
2015-Feb-24 09:37N 26°46' W 041°44'0 0.4 21.5
2015-Feb-24 08:54N 26°46' W 041°44'126.2 21.5
2015-Feb-24 08:51N 26°46' W 041°42'217.2 21.5
2015-Feb-24 08:45N 26°46' W 041°44'0 0.7 21.5
2015-Feb-24 08:21N 26°46' W 041°44'0 0.5 21.5
2015-Feb-24 07:51N 26°46' W 041°44'0 0.0 21.5
2015-Feb-24 07:09N 26°46' W 041°44'1 0.5 21.5
2015-Feb-24 05:40N 26°45' W 041°43'115.4 21.5
2015-Feb-24 05:37N 26°46' W 041°44'0 0.1 21.5
2015-Feb-24 04:03N 26°46' W 041°44'1 0.5 21.5
2015-Feb-24 01:16N 26°46' W 041°42'1 6.4 21.6
2015-Feb-24 01:09N 26°46' W 041°43'1 1.0 21.6
2015-Feb-24 00:30N 26°47' W 041°42'1 1.6 21.6
2015-Feb-23 23:37N 26°48' W 041°42'0 0.0 21.6
2015-Feb-23 22:49N 26°48' W 041°42'185.0 21.6
2015-Feb-23 22:48N 26°47' W 041°42'117.0 21.6
2015-Feb-23 22:43N 26°48' W 041°42'0 0.0 21.6
2015-Feb-23 21:15N 26°48' W 041°42'3 3.1 21.7
2015-Feb-23 20:25N 26°47' W 041°45'2 1.9 21.7
2015-Feb-23 19:37N 26°47' W 041°43'1 3.0 21.7
2015-Feb-23 19:24N 26°47' W 041°43'0 0.2 21.7
2015-Feb-23 17:18N 26°48' W 041°42'0 0.2 21.7
2015-Feb-23 15:37N 26°48' W 041°43'1 0.3 21.7
2015-Feb-23 14:01N 26°48' W 041°42'0 0.0 21.5
2015-Feb-23 13:09N 26°48' W 041°42'0 0.4 21.6
2015-Feb-23 12:19N 26°48' W 041°43'0 3.7 21.5
2015-Feb-23 12:12N 26°48' W 041°42'0 0.4 21.5
2015-Feb-23 11:34N 26°47' W 041°42'1 7.3
2015-Feb-23 11:27N 26°48' W 041°42'0 0.0 21.5
2015-Feb-23 10:01N 26°48' W 041°42'1 7.1 21.5
2015-Feb-23 09:54N 26°48' W 041°41'0 0.0 21.5
2015-Feb-23 09:04N 26°48' W 041°41'0 0.0 21.5
2015-Feb-23 09:01N 26°48' W 041°41'0 2.4 21.5
2015-Feb-23 08:57N 26°49' W 041°41'0 1.9 21.5
2015-Feb-23 08:52N 26°48' W 041°41'0 0.1 21.5
2015-Feb-23 07:19N 26°49' W 041°41'0 1.6 21.5
2015-Feb-23 07:13N 26°49' W 041°41'0 2.4 21.5
2015-Feb-23 07:09N 26°49' W 041°41'0 0.3 21.5
2015-Feb-23 06:40N 26°49' W 041°41'0 0.0 21.5
2015-Feb-23 06:39N 26°49' W 041°41'0 0.5 21.5
2015-Feb-23 05:52N 26°49' W 041°41'0 0.0 21.5
2015-Feb-23 05:48N 26°49' W 041°41'0 0.0 21.5
2015-Feb-23 04:16N 26°49' W 041°41'0 1.1 21.5
2015-Feb-23 04:13N 26°49' W 041°41'1 0.2 21.5
2015-Feb-23 01:33N 26°49' W 041°40'2 2.3 21.5
2015-Feb-23 00:49N 26°48' W 041°39'   21.5
Track history (hours):
 
Tides and Currents Weather Stations Pressure Air Temp Water Temp Dewpoint Dewpoint Depression Visibility Wind Speed Wind Dir Waves Ship Positions

Ao Chao Yang 13516

Last reported at 2015-Mar-05 01:30 UTC. Time now 2015-Mar-05 02:36 UTC.
Position N 26°29' W 041°43'.

Length 20 m.

Type: Fishing. MMSI: 412469022.

Water temperature 21.5 ° C

Date/timePositionNaut miles runAvg speedWind from/ knotsBaromVisibWave heightAir tempDewpointWater temp
2015-Mar-05 01:30N 26°29' W 041°43'0 8.7 21.5
2015-Mar-05 01:27N 26°29' W 041°43'0 0.0 21.5
2015-Mar-05 00:42N 26°29' W 041°43'1 1.1 21.5
2015-Mar-04 23:52N 26°28' W 041°44'1 1.1 21.5
2015-Mar-04 23:03N 26°29' W 041°44'0 0.0 21.5
2015-Mar-04 22:54N 26°29' W 041°44'0 0.0 21.5
2015-Mar-04 22:09N 26°29' W 041°44'0 0.0 21.6
2015-Mar-04 20:54N 26°29' W 041°44'0 0.8 21.7
2015-Mar-04 20:24N 26°29' W 041°43'1 7.2 21.7
2015-Mar-04 20:18N 26°28' W 041°43'1 3.0 21.7
2015-Mar-04 19:48N 26°29' W 041°45'0 0.0 21.7
2015-Mar-04 19:39N 26°29' W 041°45'0 0.0
2015-Mar-04 19:13N 26°29' W 041°45'1 2.1 21.7
2015-Mar-04 18:43N 26°30' W 041°44'0 0.2 21.7
2015-Mar-04 17:18N 26°29' W 041°44'1 0.5 21.7
2015-Mar-04 15:37N 26°30' W 041°44'1 1.0 21.7
2015-Mar-04 14:15N 26°30' W 041°46'1 1.6 21.5
2015-Mar-04 13:25N 26°30' W 041°44'1 0.6 21.4
2015-Mar-04 12:30N 26°31' W 041°45'0 0.0 21.4
2015-Mar-04 12:24N 26°31' W 041°45'0 0.0
2015-Mar-04 11:48N 26°31' W 041°45'1 4.3 21.4
2015-Mar-04 11:37N 26°31' W 041°45'1 0.3
2015-Mar-04 09:30N 26°31' W 041°44'0 0.0 21.4
2015-Mar-04 09:09N 26°31' W 041°44'0 5.2 21.4
2015-Mar-04 09:04N 26°31' W 041°45'0 1.6 21.4
2015-Mar-04 08:58N 26°31' W 041°44'0 7.3 21.4
2015-Mar-04 08:54N 26°31' W 041°45'0 0.0 21.4
2015-Mar-04 07:54N 26°31' W 041°45'0 0.3 21.4
2015-Mar-04 07:19N 26°31' W 041°45'0 0.1 21.4
2015-Mar-04 05:54N 26°31' W 041°45'013.5 21.4
2015-Mar-04 05:52N 26°31' W 041°45'0 0.0 21.4
2015-Mar-04 05:48N 26°31' W 041°45'0 0.0 21.4
2015-Mar-04 04:13N 26°31' W 041°45'1 9.4 21.4
2015-Mar-04 04:07N 26°32' W 041°44'0 0.0 21.4
2015-Mar-04 01:49N 26°32' W 041°44'0 0.0 21.4
2015-Mar-04 01:46N 26°32' W 041°44'0 0.0 21.4
2015-Mar-04 01:04N 26°32' W 041°44'0 0.0 21.5
2015-Mar-04 00:09N 26°32' W 041°44'0 0.4 21.5
2015-Mar-03 23:24N 26°32' W 041°44'0 0.0 21.5
2015-Mar-03 23:13N 26°32' W 041°44'0 0.0 21.5
2015-Mar-03 22:31N 26°32' W 041°44'0 0.0 21.5
2015-Mar-03 22:22N 26°32' W 041°44'1 2.3
2015-Mar-03 21:54N 26°31' W 041°45'1 0.9 21.5
2015-Mar-03 21:18N 26°32' W 041°45'0 0.3 21.5
2015-Mar-03 20:33N 26°32' W 041°45'1 3.8 21.7
2015-Mar-03 20:21N 26°31' W 041°45'1 6.6 21.7
2015-Mar-03 20:09N 26°31' W 041°46'0 0.0 21.7
2015-Mar-03 19:39N 26°31' W 041°46'0 0.0 21.7
2015-Mar-03 18:54N 26°31' W 041°46'2 1.8 21.7
2015-Mar-03 17:54N 26°32' W 041°44'0 0.0 21.7
2015-Mar-03 17:28N 26°32' W 041°44'0 0.8 21.7
2015-Mar-03 17:09N 26°32' W 041°44'0 0.0 21.7
2015-Mar-03 15:49N 26°32' W 041°44'1 4.9 21.5
2015-Mar-03 15:37N 26°33' W 041°45'0 0.1 21.5
2015-Mar-03 14:33N 26°33' W 041°45'0 0.0 21.5
2015-Mar-03 13:46N 26°33' W 041°45'0 0.2 21.4
2015-Mar-03 12:54N 26°33' W 041°45'1 0.8 21.4
2015-Mar-03 12:04N 26°34' W 041°45'1 8.5 21.4
2015-Mar-03 12:00N 26°34' W 041°45'0 0.0 21.4
2015-Mar-03 11:12N 26°34' W 041°45'1 6.6 21.4
2015-Mar-03 11:07N 26°34' W 041°45'0 0.0 21.4
2015-Mar-03 10:03N 26°34' W 041°45'1 1.4 21.4
2015-Mar-03 09:40N 26°34' W 041°45'0 0.4 21.4
2015-Mar-03 09:09N 26°34' W 041°45'0 0.0 21.4
2015-Mar-03 08:01N 26°34' W 041°45'0 0.4 21.4
2015-Mar-03 07:31N 26°34' W 041°45'0 1.6 21.4
2015-Mar-03 07:25N 26°34' W 041°45'0 0.2 21.4
2015-Mar-03 06:42N 26°34' W 041°45'0 0.0
2015-Mar-03 06:07N 26°34' W 041°45'1 4.6 21.4
2015-Mar-03 06:00N 26°34' W 041°45'0 0.0 21.4
2015-Mar-03 04:28N 26°34' W 041°45'0 0.0 21.4
2015-Mar-03 04:25N 26°34' W 041°45'1 6.8 21.4
2015-Mar-03 04:18N 26°35' W 041°45'0 0.0 21.4
2015-Mar-03 01:24N 26°35' W 041°45'0 0.1 21.4
2015-Mar-03 00:31N 26°35' W 041°45'1 0.6 21.4
2015-Mar-02 22:52N 26°35' W 041°46'1 5.2 21.4
2015-Mar-02 22:46N 26°36' W 041°45'0 0.0 21.4
2015-Mar-02 21:39N 26°36' W 041°45'0 0.0 21.5
2015-Mar-02 20:52N 26°36' W 041°45'0 3.4 21.5
2015-Mar-02 20:45N 26°35' W 041°46'1 0.8 21.5
2015-Mar-02 20:04N 26°35' W 041°46'0 0.0 21.5
2015-Mar-02 20:00N 26°35' W 041°46'0 0.0 21.5
2015-Mar-02 19:06N 26°35' W 041°46'0 0.2 21.6
2015-Mar-02 18:22N 26°35' W 041°46'0 0.1 21.5
2015-Mar-02 17:40N 26°35' W 041°46'1 8.1 21.5
2015-Mar-02 17:36N 26°35' W 041°46'0 0.0 21.5
2015-Mar-02 17:21N 26°35' W 041°46'0 0.2 21.5
2015-Mar-02 16:00N 26°35' W 041°45'0 2.6 21.5
2015-Mar-02 15:54N 26°35' W 041°45'111.0 21.4
2015-Mar-02 15:49N 26°36' W 041°45'0 0.0 21.4
2015-Mar-02 14:09N 26°36' W 041°45'1 6.6 21.4
2015-Mar-02 14:01N 26°36' W 041°45'0 0.6 21.4
2015-Mar-02 13:18N 26°36' W 041°45'0 1.6 21.4
2015-Mar-02 13:15N 26°36' W 041°45'0 0.6 21.4
2015-Mar-02 12:30N 26°36' W 041°45'0 0.5 21.4
2015-Mar-02 11:33N 26°36' W 041°45'118.0 21.4
2015-Mar-02 11:30N 26°37' W 041°45'0 0.2 21.4
2015-Mar-02 10:25N 26°37' W 041°45'0 0.7 21.4
2015-Mar-02 10:07N 26°37' W 041°45'0 0.3 21.4
2015-Mar-02 09:22N 26°37' W 041°45'0 5.0 21.4
2015-Mar-02 09:16N 26°37' W 041°45'0 1.0 21.4
2015-Mar-02 08:49N 26°37' W 041°45'0 2.1 21.4
2015-Mar-02 08:42N 26°37' W 041°45'0 0.0 21.4
2015-Mar-02 07:37N 26°37' W 041°45'0 0.1 21.4
2015-Mar-02 07:07N 26°37' W 041°45'0 1.5 21.4
2015-Mar-02 06:49N 26°37' W 041°45'0 0.0 21.4
2015-Mar-02 06:19N 26°37' W 041°45'0 2.9 21.4
2015-Mar-02 06:13N 26°37' W 041°45'1 0.7 21.4
2015-Mar-02 04:36N 26°37' W 041°46'1 6.3 21.4
2015-Mar-02 04:31N 26°38' W 041°46'0 0.0 21.4
2015-Mar-02 00:52N 26°38' W 041°46'2 2.2 21.4
2015-Mar-02 00:06N 26°39' W 041°47'0 0.0 21.4
2015-Mar-02 00:01N 26°39' W 041°47'0 0.0 21.4
2015-Mar-01 23:58N 26°39' W 041°47'0 0.0 21.4
2015-Mar-01 23:09N 26°39' W 041°47'143.5 21.4
2015-Mar-01 23:07N 26°38' W 041°46'1 8.6 21.4
2015-Mar-01 22:58N 26°39' W 041°45'2 0.9 21.4
2015-Mar-01 20:52N 26°37' W 041°46'0 0.8 21.5
2015-Mar-01 20:28N 26°38' W 041°46'1 0.3 21.5
2015-Mar-01 17:51N 26°38' W 041°47'1 3.6 21.5
2015-Mar-01 17:34N 26°38' W 041°48'1 0.8 21.5
2015-Mar-01 16:09N 26°38' W 041°46'2 0.8 21.5
2015-Mar-01 13:37N 26°38' W 041°44'0 0.0 21.4
2015-Mar-01 12:49N 26°38' W 041°44'0 0.0 21.4
2015-Mar-01 12:46N 26°38' W 041°44'2 2.0 21.4
2015-Mar-01 11:54N 26°39' W 041°46'0 0.1 21.4
2015-Mar-01 09:36N 26°39' W 041°46'126.4 21.4
2015-Mar-01 09:34N 26°39' W 041°45'0 3.2 21.4
2015-Mar-01 09:28N 26°39' W 041°46'0 0.0 21.4
2015-Mar-01 09:07N 26°39' W 041°46'0 0.0 21.4
2015-Mar-01 09:04N 26°39' W 041°46'1 1.2 21.4
2015-Mar-01 07:54N 26°39' W 041°47'0 2.4 21.4
2015-Mar-01 07:49N 26°39' W 041°47'0 0.0 21.4
2015-Mar-01 07:46N 26°39' W 041°47'0 0.0 21.4
2015-Mar-01 07:31N 26°39' W 041°47'1 6.5 21.4
2015-Mar-01 07:24N 26°39' W 041°46'0 0.5 21.4
2015-Mar-01 06:28N 26°39' W 041°47'0 3.2 21.4
2015-Mar-01 06:22N 26°40' W 041°47'0 0.0 21.4
2015-Mar-01 06:07N 26°40' W 041°47'0 0.0
2015-Mar-01 04:48N 26°40' W 041°47'1 8.1 21.4
2015-Mar-01 04:42N 26°40' W 041°46'0 0.1 21.4
2015-Mar-01 01:07N 26°40' W 041°47'1 1.4 21.5
2015-Mar-01 00:25N 26°40' W 041°48'0 0.0 21.5
2015-Feb-28 23:34N 26°40' W 041°48'1 1.0 21.5
2015-Feb-28 22:46N 26°40' W 041°47'0 0.0 21.5
2015-Feb-28 21:04N 26°40' W 041°47'0 0.4 21.5
2015-Feb-28 20:52N 26°40' W 041°47'0 0.5 21.5
2015-Feb-28 20:15N 26°39' W 041°47'0 2.0 21.5
2015-Feb-28 20:04N 26°39' W 041°47'0 0.1 21.5
2015-Feb-28 19:28N 26°39' W 041°47'2 6.4 21.6
2015-Feb-28 19:13N 26°40' W 041°49'215.6 21.6
2015-Feb-28 19:06N 26°39' W 041°47'0 0.2 21.6
2015-Feb-28 18:01N 26°39' W 041°47'0 0.7 21.6
2015-Feb-28 17:46N 26°39' W 041°47'0 0.1 21.6
2015-Feb-28 16:22N 26°39' W 041°47'1 0.5 21.5
2015-Feb-28 13:58N 26°39' W 041°46'0 0.0 21.5
2015-Feb-28 13:09N 26°39' W 041°46'0 0.2 21.5
2015-Feb-28 12:15N 26°39' W 041°46'111.9 21.5
2015-Feb-28 12:12N 26°39' W 041°45'0 0.0 21.5
2015-Feb-28 12:09N 26°39' W 041°45'0 0.0 21.5
2015-Feb-28 11:31N 26°39' W 041°45'0 1.4 21.5
2015-Feb-28 11:24N 26°40' W 041°45'0 0.2 21.5
2015-Feb-28 09:45N 26°40' W 041°45'0 0.0 21.5
2015-Feb-28 09:37N 26°40' W 041°45'0 0.0 21.5
2015-Feb-28 08:04N 26°40' W 041°45'0 0.0 21.5
2015-Feb-28 07:54N 26°40' W 041°45'0 0.3 21.5
2015-Feb-28 06:42N 26°40' W 041°45'0 2.4 21.5
2015-Feb-28 06:33N 26°40' W 041°45'0 1.2 21.5
2015-Feb-28 06:19N 26°40' W 041°45'0 0.0 21.5
2015-Feb-28 04:58N 26°40' W 041°45'1 0.4 21.5
2015-Feb-28 01:30N 26°41' W 041°44'1 1.1 21.5
2015-Feb-28 00:46N 26°41' W 041°44'0 0.0 21.5
2015-Feb-27 23:55N 26°41' W 041°44'0 0.0 21.5
2015-Feb-27 23:52N 26°41' W 041°44'0 0.6 21.5
2015-Feb-27 23:04N 26°41' W 041°43'0 0.0 21.5
2015-Feb-27 22:58N 26°41' W 041°43'0 0.1
2015-Feb-27 20:34N 26°42' W 041°44'0 0.2 21.6
2015-Feb-27 18:13N 26°41' W 041°44'0 3.0 21.7
2015-Feb-27 18:09N 26°41' W 041°44'0 2.7
2015-Feb-27 17:58N 26°41' W 041°43'0 0.0 21.7
2015-Feb-27 17:54N 26°41' W 041°43'0 0.0 21.7
2015-Feb-27 16:34N 26°41' W 041°43'0 0.0 21.7
2015-Feb-27 14:51N 26°41' W 041°43'0 0.8 21.6
2015-Feb-27 14:18N 26°42' W 041°43'0 0.0 21.5
2015-Feb-27 13:28N 26°42' W 041°43'1 1.6 21.5
2015-Feb-27 12:36N 26°42' W 041°42'0 0.0 21.5
2015-Feb-27 12:28N 26°42' W 041°42'1 1.3 21.5
2015-Feb-27 11:48N 26°43' W 041°42'1 1.3 21.5
2015-Feb-27 10:51N 26°42' W 041°42'0 0.4
2015-Feb-27 10:01N 26°42' W 041°42'1 0.5 21.5
2015-Feb-27 08:27N 26°42' W 041°42'1 3.1 21.5
2015-Feb-27 08:15N 26°42' W 041°41'1 0.8 21.5
2015-Feb-27 06:45N 26°43' W 041°42'0 0.0 21.5
2015-Feb-27 06:39N 26°43' W 041°42'0 0.0 21.5
2015-Feb-27 06:36N 26°43' W 041°42'110.1 21.5
2015-Feb-27 06:31N 26°42' W 041°41'0 0.0 21.5
2015-Feb-27 05:06N 26°42' W 041°41'0 0.0 21.5
2015-Feb-27 01:51N 26°43' W 041°41'0 0.0 21.5
2015-Feb-27 01:06N 26°43' W 041°41'122.5 21.5
2015-Feb-27 01:03N 26°43' W 041°40'1 0.2 21.5
2015-Feb-26 20:03N 26°43' W 041°41'1 0.4 21.7
2015-Feb-26 18:21N 26°43' W 041°42'1 3.9 21.7
2015-Feb-26 18:09N 26°43' W 041°43'1 1.0 21.7
2015-Feb-26 16:45N 26°43' W 041°41'1 0.8 21.7
2015-Feb-26 15:03N 26°43' W 041°42'1 1.6 21.6
2015-Feb-26 14:34N 26°43' W 041°42'0 0.0 21.6
2015-Feb-26 13:51N 26°43' W 041°42'0 0.5 21.5
2015-Feb-26 12:52N 26°43' W 041°42'0 0.0 21.5
2015-Feb-26 12:07N 26°43' W 041°42'0 4.0
2015-Feb-26 12:04N 26°43' W 041°42'0 0.0 21.5
2015-Feb-26 11:18N 26°43' W 041°42'0 1.9 21.5
2015-Feb-26 11:12N 26°43' W 041°42'0 0.0 21.5
2015-Feb-26 08:54N 26°43' W 041°42'0 0.5 21.5
2015-Feb-26 08:25N 26°43' W 041°42'0 0.0 21.5
2015-Feb-26 07:18N 26°43' W 041°42'0 0.4 21.5
2015-Feb-26 07:03N 26°43' W 041°42'0 1.7 21.5
2015-Feb-26 06:51N 26°43' W 041°42'0 7.4 21.5
2015-Feb-26 06:48N 26°43' W 041°42'0 0.0 21.5
2015-Feb-26 05:21N 26°43' W 041°42'0 0.0 21.5
2015-Feb-26 05:13N 26°43' W 041°42'1 0.7 21.5
2015-Feb-26 03:40N 26°44' W 041°42'0 0.0 21.5
2015-Feb-26 01:27N 26°44' W 041°42'0 0.4 21.5
2015-Feb-26 00:37N 26°44' W 041°42'0 0.0 21.5
2015-Feb-26 00:34N 26°44' W 041°42'0 0.4 21.5
2015-Feb-25 23:46N 26°44' W 041°42'0 0.0 21.6
2015-Feb-25 23:42N 26°44' W 041°42'0 0.1 21.6
2015-Feb-25 22:54N 26°44' W 041°42'116.8 21.6
2015-Feb-25 22:51N 26°45' W 041°43'1 0.9 21.6
2015-Feb-25 21:48N 26°45' W 041°42'1 0.5 21.7
2015-Feb-25 20:27N 26°45' W 041°43'1 2.8 21.7
2015-Feb-25 20:09N 26°45' W 041°44'1 6.9 21.7
2015-Feb-25 20:03N 26°44' W 041°44'0 0.2 21.7
2015-Feb-25 18:46N 26°44' W 041°44'0 0.8 21.7
2015-Feb-25 18:33N 26°44' W 041°44'0 2.0 21.7
2015-Feb-25 18:22N 26°44' W 041°45'1 0.5 21.7
2015-Feb-25 16:54N 26°44' W 041°44'1 0.6 21.7
2015-Feb-25 15:15N 26°44' W 041°45'0 3.2 21.6
2015-Feb-25 15:09N 26°44' W 041°44'0 0.4 21.6
2015-Feb-25 14:12N 26°44' W 041°45'1 4.3 21.6
2015-Feb-25 14:03N 26°44' W 041°44'0 0.1 21.6
2015-Feb-25 12:27N 26°44' W 041°44'0 4.9 21.5
2015-Feb-25 12:24N 26°44' W 041°44'0 0.0 21.5
2015-Feb-25 11:37N 26°44' W 041°44'0 6.7 21.5
2015-Feb-25 11:33N 26°44' W 041°44'0 0.0 21.5
2015-Feb-25 09:09N 26°44' W 041°44'0 0.1 21.5
2015-Feb-25 07:48N 26°44' W 041°44'0 1.1 21.5
2015-Feb-25 07:28N 26°45' W 041°43'0 0.0 21.5
2015-Feb-25 07:09N 26°45' W 041°43'0 0.0
2015-Feb-25 07:01N 26°45' W 041°43'0 2.5 21.5
2015-Feb-25 06:58N 26°45' W 041°44'0 0.2 21.5
2015-Feb-25 05:31N 26°45' W 041°44'1 0.7 21.5
2015-Feb-25 03:51N 26°46' W 041°44'221.9 21.5
2015-Feb-25 03:46N 26°46' W 041°42'0 0.0 21.5
2015-Feb-25 00:54N 26°46' W 041°42'1 1.3 21.5
2015-Feb-25 00:09N 26°46' W 041°43'0 0.0 21.5
2015-Feb-25 00:06N 26°46' W 041°43'0 0.0 21.5
2015-Feb-24 23:16N 26°46' W 041°43'1 8.6 21.6
2015-Feb-24 23:09N 26°46' W 041°44'0 0.0 21.6
2015-Feb-24 23:07N 26°46' W 041°44'0 0.0 21.6
2015-Feb-24 22:22N 26°46' W 041°44'0 0.3 21.6
2015-Feb-24 20:51N 26°46' W 041°44'0 0.0 21.7
2015-Feb-24 20:15N 26°46' W 041°44'1 7.8 21.7
2015-Feb-24 20:09N 26°46' W 041°45'1 1.1 21.7
2015-Feb-24 19:09N 26°46' W 041°44'0 0.2 21.7
2015-Feb-24 17:07N 26°46' W 041°44'2 1.2 21.7
2015-Feb-24 15:22N 26°45' W 041°45'221.5 21.7
2015-Feb-24 15:16N 26°47' W 041°44'1 0.4 21.7
2015-Feb-24 13:40N 26°46' W 041°44'0 0.0 21.6
2015-Feb-24 12:52N 26°46' W 041°44'0 1.2 21.6
2015-Feb-24 12:49N 26°46' W 041°44'0 4.3 21.6
2015-Feb-24 12:46N 26°46' W 041°44'0 0.2 21.6
2015-Feb-24 11:54N 26°46' W 041°44'010.9 21.5
2015-Feb-24 11:52N 26°46' W 041°44'0 0.0 21.5
2015-Feb-24 11:07N 26°46' W 041°44'0 0.0 21.5
2015-Feb-24 10:00N 26°46' W 041°44'0 0.6 21.5
2015-Feb-24 09:37N 26°46' W 041°44'0 0.4 21.5
2015-Feb-24 08:54N 26°46' W 041°44'126.2 21.5
2015-Feb-24 08:51N 26°46' W 041°42'217.2 21.5
2015-Feb-24 08:45N 26°46' W 041°44'0 0.7 21.5
2015-Feb-24 08:21N 26°46' W 041°44'0 0.5 21.5
2015-Feb-24 07:51N 26°46' W 041°44'0 0.0 21.5
2015-Feb-24 07:09N 26°46' W 041°44'1 0.5 21.5
2015-Feb-24 05:40N 26°45' W 041°43'115.4 21.5
2015-Feb-24 05:37N 26°46' W 041°44'0 0.1 21.5
2015-Feb-24 04:03N 26°46' W 041°44'1 0.5 21.5
2015-Feb-24 01:16N 26°46' W 041°42'1 6.4 21.6
2015-Feb-24 01:09N 26°46' W 041°43'1 1.0 21.6
2015-Feb-24 00:30N 26°47' W 041°42'1 1.6 21.6
2015-Feb-23 23:37N 26°48' W 041°42'0 0.0 21.6
2015-Feb-23 22:49N 26°48' W 041°42'185.0 21.6
2015-Feb-23 22:48N 26°47' W 041°42'117.0 21.6
2015-Feb-23 22:43N 26°48' W 041°42'0 0.0 21.6
2015-Feb-23 21:15N 26°48' W 041°42'3 3.1 21.7
2015-Feb-23 20:25N 26°47' W 041°45'2 1.9 21.7
2015-Feb-23 19:37N 26°47' W 041°43'1 3.0 21.7
2015-Feb-23 19:24N 26°47' W 041°43'0 0.2 21.7
2015-Feb-23 17:18N 26°48' W 041°42'0 0.2 21.7
2015-Feb-23 15:37N 26°48' W 041°43'1 0.3 21.7
2015-Feb-23 14:01N 26°48' W 041°42'0 0.0 21.5
2015-Feb-23 13:09N 26°48' W 041°42'0 0.4 21.6
2015-Feb-23 12:19N 26°48' W 041°43'0 3.7 21.5
2015-Feb-23 12:12N 26°48' W 041°42'0 0.4 21.5
2015-Feb-23 11:34N 26°47' W 041°42'1 7.3
2015-Feb-23 11:27N 26°48' W 041°42'0 0.0 21.5
2015-Feb-23 10:01N 26°48' W 041°42'1 7.1 21.5
2015-Feb-23 09:54N 26°48' W 041°41'0 0.0 21.5
2015-Feb-23 09:04N 26°48' W 041°41'0 0.0 21.5
2015-Feb-23 09:01N 26°48' W 041°41'0 2.4 21.5
2015-Feb-23 08:57N 26°49' W 041°41'0 1.9 21.5
2015-Feb-23 08:52N 26°48' W 041°41'0 0.1 21.5
2015-Feb-23 07:19N 26°49' W 041°41'0 1.6 21.5
2015-Feb-23 07:13N 26°49' W 041°41'0 2.4 21.5
2015-Feb-23 07:09N 26°49' W 041°41'0 0.3 21.5
2015-Feb-23 06:40N 26°49' W 041°41'0 0.0 21.5
2015-Feb-23 06:39N 26°49' W 041°41'0 0.5 21.5
2015-Feb-23 05:52N 26°49' W 041°41'0 0.0 21.5
2015-Feb-23 05:48N 26°49' W 041°41'0 0.0 21.5
2015-Feb-23 04:16N 26°49' W 041°41'0 1.1 21.5
2015-Feb-23 04:13N 26°49' W 041°41'1 0.2 21.5
2015-Feb-23 01:33N 26°49' W 041°40'2 2.3 21.5
2015-Feb-23 00:49N 26°48' W 041°39'   21.5

Dump ship's entire track history